sensor_id;sensor_type;location;lat;lon;timestamp;P1;durP1;ratioP1;P2;durP2;ratioP2
16442;SDS011;8331;51.654;14.376;2023-04-29T00:00:42;8.17;;;7.37;;
16442;SDS011;8331;51.654;14.376;2023-04-29T00:03:09;7.97;;;7.27;;
16442;SDS011;8331;51.654;14.376;2023-04-29T00:05:36;7.37;;;6.77;;
16442;SDS011;8331;51.654;14.376;2023-04-29T00:08:02;7.70;;;7.13;;
16442;SDS011;8331;51.654;14.376;2023-04-29T00:10:30;8.10;;;7.50;;
16442;SDS011;8331;51.654;14.376;2023-04-29T00:12:56;8.17;;;7.47;;
16442;SDS011;8331;51.654;14.376;2023-04-29T00:15:23;7.50;;;6.80;;
16442;SDS011;8331;51.654;14.376;2023-04-29T00:17:49;7.63;;;7.00;;
16442;SDS011;8331;51.654;14.376;2023-04-29T00:20:16;7.67;;;7.03;;
16442;SDS011;8331;51.654;14.376;2023-04-29T00:22:43;7.60;;;6.93;;
16442;SDS011;8331;51.654;14.376;2023-04-29T00:25:10;8.13;;;7.43;;
16442;SDS011;8331;51.654;14.376;2023-04-29T00:27:37;8.67;;;7.77;;
16442;SDS011;8331;51.654;14.376;2023-04-29T00:30:05;7.30;;;6.70;;
16442;SDS011;8331;51.654;14.376;2023-04-29T00:32:33;7.73;;;7.13;;
16442;SDS011;8331;51.654;14.376;2023-04-29T00:35:00;7.80;;;7.20;;
16442;SDS011;8331;51.654;14.376;2023-04-29T00:37:27;8.10;;;7.50;;
16442;SDS011;8331;51.654;14.376;2023-04-29T00:39:54;7.83;;;7.13;;
16442;SDS011;8331;51.654;14.376;2023-04-29T00:42:20;7.47;;;6.83;;
16442;SDS011;8331;51.654;14.376;2023-04-29T00:44:47;7.93;;;7.13;;
16442;SDS011;8331;51.654;14.376;2023-04-29T00:47:14;7.97;;;7.27;;
16442;SDS011;8331;51.654;14.376;2023-04-29T00:49:41;8.67;;;7.97;;
16442;SDS011;8331;51.654;14.376;2023-04-29T00:52:07;8.53;;;7.83;;
16442;SDS011;8331;51.654;14.376;2023-04-29T00:54:36;8.97;;;8.17;;
16442;SDS011;8331;51.654;14.376;2023-04-29T00:57:03;8.53;;;7.80;;
16442;SDS011;8331;51.654;14.376;2023-04-29T00:59:29;9.90;;;9.00;;
16442;SDS011;8331;51.654;14.376;2023-04-29T01:02:01;10.23;;;9.33;;
16442;SDS011;8331;51.654;14.376;2023-04-29T01:04:30;10.07;;;9.20;;
16442;SDS011;8331;51.654;14.376;2023-04-29T01:14:32;8.93;;;8.07;;
16442;SDS011;8331;51.654;14.376;2023-04-29T01:17:03;9.07;;;8.27;;
16442;SDS011;8331;51.654;14.376;2023-04-29T01:19:38;9.47;;;8.70;;
16442;SDS011;8331;51.654;14.376;2023-04-29T01:22:06;9.10;;;8.20;;
16442;SDS011;8331;51.654;14.376;2023-04-29T01:24:33;8.80;;;8.10;;
16442;SDS011;8331;51.654;14.376;2023-04-29T01:27:12;12.10;;;8.33;;
16442;SDS011;8331;51.654;14.376;2023-04-29T01:29:46;9.03;;;8.23;;
16442;SDS011;8331;51.654;14.376;2023-04-29T01:32:17;9.90;;;9.00;;
16442;SDS011;8331;51.654;14.376;2023-04-29T01:34:57;10.20;;;9.30;;
16442;SDS011;8331;51.654;14.376;2023-04-29T01:37:37;10.93;;;9.83;;
16442;SDS011;8331;51.654;14.376;2023-04-29T01:40:18;10.70;;;9.70;;
16442;SDS011;8331;51.654;14.376;2023-04-29T01:43:04;11.07;;;9.90;;
16442;SDS011;8331;51.654;14.376;2023-04-29T01:45:33;12.43;;;11.20;;
16442;SDS011;8331;51.654;14.376;2023-04-29T01:48:01;11.53;;;10.17;;
16442;SDS011;8331;51.654;14.376;2023-04-29T01:50:29;10.20;;;9.37;;
16442;SDS011;8331;51.654;14.376;2023-04-29T01:53:05;9.87;;;8.97;;
16442;SDS011;8331;51.654;14.376;2023-04-29T01:55:33;12.87;;;10.40;;
16442;SDS011;8331;51.654;14.376;2023-04-29T01:58:11;13.00;;;11.83;;
16442;SDS011;8331;51.654;14.376;2023-04-29T02:00:56;13.77;;;12.03;;
16442;SDS011;8331;51.654;14.376;2023-04-29T02:03:25;11.80;;;10.77;;
16442;SDS011;8331;51.654;14.376;2023-04-29T02:05:54;13.57;;;10.80;;
16442;SDS011;8331;51.654;14.376;2023-04-29T02:08:21;13.77;;;11.87;;
16442;SDS011;8331;51.654;14.376;2023-04-29T02:10:50;13.37;;;12.07;;
16442;SDS011;8331;51.654;14.376;2023-04-29T02:13:27;12.73;;;11.20;;
16442;SDS011;8331;51.654;14.376;2023-04-29T02:15:53;12.93;;;11.83;;
16442;SDS011;8331;51.654;14.376;2023-04-29T02:18:20;12.87;;;11.17;;
16442;SDS011;8331;51.654;14.376;2023-04-29T02:20:47;12.40;;;11.30;;
16442;SDS011;8331;51.654;14.376;2023-04-29T02:23:16;12.63;;;11.43;;
16442;SDS011;8331;51.654;14.376;2023-04-29T02:25:42;12.90;;;11.70;;
16442;SDS011;8331;51.654;14.376;2023-04-29T02:28:09;13.03;;;11.87;;
16442;SDS011;8331;51.654;14.376;2023-04-29T02:30:38;13.83;;;12.53;;
16442;SDS011;8331;51.654;14.376;2023-04-29T02:33:05;13.37;;;12.07;;
16442;SDS011;8331;51.654;14.376;2023-04-29T02:35:34;12.67;;;11.47;;
16442;SDS011;8331;51.654;14.376;2023-04-29T02:38:00;12.23;;;11.20;;
16442;SDS011;8331;51.654;14.376;2023-04-29T02:40:27;12.70;;;11.40;;
16442;SDS011;8331;51.654;14.376;2023-04-29T02:42:54;14.40;;;13.00;;
16442;SDS011;8331;51.654;14.376;2023-04-29T02:45:21;14.00;;;12.60;;
16442;SDS011;8331;51.654;14.376;2023-04-29T02:47:47;17.70;;;15.53;;
16442;SDS011;8331;51.654;14.376;2023-04-29T02:50:14;16.00;;;14.40;;
16442;SDS011;8331;51.654;14.376;2023-04-29T02:52:41;13.87;;;12.57;;
16442;SDS011;8331;51.654;14.376;2023-04-29T02:55:07;13.53;;;12.17;;
16442;SDS011;8331;51.654;14.376;2023-04-29T02:57:34;14.17;;;12.87;;
16442;SDS011;8331;51.654;14.376;2023-04-29T03:00:01;13.43;;;12.23;;
16442;SDS011;8331;51.654;14.376;2023-04-29T03:02:28;16.13;;;13.53;;
16442;SDS011;8331;51.654;14.376;2023-04-29T03:04:57;16.30;;;14.70;;
16442;SDS011;8331;51.654;14.376;2023-04-29T03:07:23;16.73;;;14.93;;
16442;SDS011;8331;51.654;14.376;2023-04-29T03:09:51;20.30;;;17.10;;
16442;SDS011;8331;51.654;14.376;2023-04-29T03:12:18;21.40;;;18.70;;
16442;SDS011;8331;51.654;14.376;2023-04-29T03:14:45;27.07;;;19.17;;
16442;SDS011;8331;51.654;14.376;2023-04-29T03:17:11;21.80;;;18.30;;
16442;SDS011;8331;51.654;14.376;2023-04-29T03:19:40;22.37;;;18.80;;
16442;SDS011;8331;51.654;14.376;2023-04-29T03:22:06;22.67;;;18.03;;
16442;SDS011;8331;51.654;14.376;2023-04-29T03:24:39;22.13;;;17.73;;
16442;SDS011;8331;51.654;14.376;2023-04-29T03:27:06;19.23;;;17.17;;
16442;SDS011;8331;51.654;14.376;2023-04-29T03:29:33;18.60;;;16.60;;
16442;SDS011;8331;51.654;14.376;2023-04-29T03:31:59;24.00;;;18.67;;
16442;SDS011;8331;51.654;14.376;2023-04-29T03:34:28;20.07;;;17.13;;
16442;SDS011;8331;51.654;14.376;2023-04-29T03:37:13;20.70;;;16.97;;
16442;SDS011;8331;51.654;14.376;2023-04-29T03:39:45;20.83;;;16.80;;
16442;SDS011;8331;51.654;14.376;2023-04-29T03:42:12;20.40;;;17.53;;
16442;SDS011;8331;51.654;14.376;2023-04-29T03:44:39;18.23;;;16.30;;
16442;SDS011;8331;51.654;14.376;2023-04-29T03:47:06;17.90;;;16.00;;
16442;SDS011;8331;51.654;14.376;2023-04-29T03:49:33;18.57;;;16.27;;
16442;SDS011;8331;51.654;14.376;2023-04-29T03:52:00;19.30;;;17.30;;
16442;SDS011;8331;51.654;14.376;2023-04-29T03:54:27;18.97;;;16.47;;
16442;SDS011;8331;51.654;14.376;2023-04-29T03:56:54;20.50;;;16.10;;
16442;SDS011;8331;51.654;14.376;2023-04-29T03:59:22;21.43;;;17.47;;
16442;SDS011;8331;51.654;14.376;2023-04-29T04:01:50;17.80;;;16.00;;
16442;SDS011;8331;51.654;14.376;2023-04-29T04:04:20;18.60;;;16.70;;
16442;SDS011;8331;51.654;14.376;2023-04-29T04:06:49;17.93;;;16.13;;
16442;SDS011;8331;51.654;14.376;2023-04-29T04:09:19;20.17;;;16.83;;
16442;SDS011;8331;51.654;14.376;2023-04-29T04:11:46;18.37;;;16.00;;
16442;SDS011;8331;51.654;14.376;2023-04-29T04:14:13;20.37;;;17.87;;
16442;SDS011;8331;51.654;14.376;2023-04-29T04:16:40;17.47;;;15.70;;
16442;SDS011;8331;51.654;14.376;2023-04-29T04:19:07;17.27;;;15.40;;
16442;SDS011;8331;51.654;14.376;2023-04-29T04:21:37;17.97;;;15.27;;
16442;SDS011;8331;51.654;14.376;2023-04-29T04:24:06;20.40;;;16.23;;
16442;SDS011;8331;51.654;14.376;2023-04-29T04:26:33;16.53;;;14.57;;
16442;SDS011;8331;51.654;14.376;2023-04-29T04:29:21;16.70;;;15.00;;
16442;SDS011;8331;51.654;14.376;2023-04-29T04:31:54;15.43;;;13.83;;
16442;SDS011;8331;51.654;14.376;2023-04-29T04:34:22;18.33;;;15.77;;
16442;SDS011;8331;51.654;14.376;2023-04-29T04:36:50;17.27;;;14.67;;
16442;SDS011;8331;51.654;14.376;2023-04-29T04:39:17;16.27;;;14.57;;
16442;SDS011;8331;51.654;14.376;2023-04-29T04:41:44;16.97;;;15.17;;
16442;SDS011;8331;51.654;14.376;2023-04-29T04:44:10;18.40;;;15.87;;
16442;SDS011;8331;51.654;14.376;2023-04-29T04:47:07;16.73;;;15.03;;
16442;SDS011;8331;51.654;14.376;2023-04-29T04:50:06;16.87;;;15.17;;
16442;SDS011;8331;51.654;14.376;2023-04-29T04:52:33;16.23;;;14.60;;
16442;SDS011;8331;51.654;14.376;2023-04-29T04:55:27;18.73;;;15.33;;
16442;SDS011;8331;51.654;14.376;2023-04-29T04:57:54;15.90;;;14.20;;
16442;SDS011;8331;51.654;14.376;2023-04-29T05:00:21;18.43;;;15.27;;
16442;SDS011;8331;51.654;14.376;2023-04-29T05:02:48;18.87;;;15.17;;
16442;SDS011;8331;51.654;14.376;2023-04-29T05:05:14;21.20;;;15.63;;
16442;SDS011;8331;51.654;14.376;2023-04-29T05:07:42;18.20;;;16.27;;
16442;SDS011;8331;51.654;14.376;2023-04-29T05:10:09;17.50;;;15.17;;
16442;SDS011;8331;51.654;14.376;2023-04-29T05:12:44;19.27;;;16.13;;
16442;SDS011;8331;51.654;14.376;2023-04-29T05:15:11;15.70;;;13.97;;
16442;SDS011;8331;51.654;14.376;2023-04-29T05:17:38;16.80;;;14.63;;
16442;SDS011;8331;51.654;14.376;2023-04-29T05:20:05;17.13;;;15.33;;
16442;SDS011;8331;51.654;14.376;2023-04-29T05:22:32;17.73;;;15.47;;
16442;SDS011;8331;51.654;14.376;2023-04-29T05:25:00;18.23;;;15.17;;
16442;SDS011;8331;51.654;14.376;2023-04-29T05:27:30;19.00;;;15.67;;
16442;SDS011;8331;51.654;14.376;2023-04-29T05:29:58;18.13;;;15.37;;
16442;SDS011;8331;51.654;14.376;2023-04-29T05:32:24;15.17;;;13.60;;
16442;SDS011;8331;51.654;14.376;2023-04-29T05:34:51;15.83;;;13.80;;
16442;SDS011;8331;51.654;14.376;2023-04-29T05:37:18;15.27;;;13.67;;
16442;SDS011;8331;51.654;14.376;2023-04-29T05:40:03;16.73;;;13.67;;
16442;SDS011;8331;51.654;14.376;2023-04-29T05:42:30;15.10;;;13.53;;
16442;SDS011;8331;51.654;14.376;2023-04-29T05:44:57;15.80;;;13.63;;
16442;SDS011;8331;51.654;14.376;2023-04-29T05:47:24;15.73;;;14.00;;
16442;SDS011;8331;51.654;14.376;2023-04-29T05:49:50;14.40;;;13.00;;
16442;SDS011;8331;51.654;14.376;2023-04-29T05:52:17;17.00;;;13.50;;
16442;SDS011;8331;51.654;14.376;2023-04-29T05:54:47;18.00;;;15.23;;
16442;SDS011;8331;51.654;14.376;2023-04-29T05:57:14;16.47;;;14.57;;
16442;SDS011;8331;51.654;14.376;2023-04-29T05:59:40;15.10;;;13.50;;
16442;SDS011;8331;51.654;14.376;2023-04-29T06:02:07;16.47;;;14.70;;
16442;SDS011;8331;51.654;14.376;2023-04-29T06:04:37;15.77;;;14.17;;
16442;SDS011;8331;51.654;14.376;2023-04-29T06:07:07;16.33;;;14.63;;
16442;SDS011;8331;51.654;14.376;2023-04-29T06:10:00;17.57;;;14.83;;
16442;SDS011;8331;51.654;14.376;2023-04-29T06:12:28;15.90;;;14.27;;
16442;SDS011;8331;51.654;14.376;2023-04-29T06:14:57;15.60;;;13.93;;
16442;SDS011;8331;51.654;14.376;2023-04-29T06:17:23;19.00;;;15.37;;
16442;SDS011;8331;51.654;14.376;2023-04-29T06:19:50;18.80;;;15.47;;
16442;SDS011;8331;51.654;14.376;2023-04-29T06:22:17;18.53;;;16.53;;
16442;SDS011;8331;51.654;14.376;2023-04-29T06:24:48;16.57;;;14.80;;
16442;SDS011;8331;51.654;14.376;2023-04-29T06:27:23;17.27;;;15.17;;
16442;SDS011;8331;51.654;14.376;2023-04-29T06:29:50;17.50;;;15.63;;
16442;SDS011;8331;51.654;14.376;2023-04-29T06:32:17;17.33;;;14.50;;
16442;SDS011;8331;51.654;14.376;2023-04-29T06:34:45;15.90;;;14.30;;
16442;SDS011;8331;51.654;14.376;2023-04-29T06:37:34;16.50;;;14.80;;
16442;SDS011;8331;51.654;14.376;2023-04-29T06:40:29;17.40;;;14.97;;
16442;SDS011;8331;51.654;14.376;2023-04-29T06:43:01;19.47;;;15.77;;
16442;SDS011;8331;51.654;14.376;2023-04-29T06:45:32;17.50;;;15.60;;
16442;SDS011;8331;51.654;14.376;2023-04-29T06:48:07;17.87;;;15.97;;
16442;SDS011;8331;51.654;14.376;2023-04-29T06:50:37;18.17;;;16.13;;
16442;SDS011;8331;51.654;14.376;2023-04-29T06:53:05;17.57;;;15.53;;
16442;SDS011;8331;51.654;14.376;2023-04-29T06:55:34;20.17;;;16.37;;
16442;SDS011;8331;51.654;14.376;2023-04-29T06:58:01;21.17;;;18.23;;
16442;SDS011;8331;51.654;14.376;2023-04-29T07:00:29;21.27;;;18.07;;
16442;SDS011;8331;51.654;14.376;2023-04-29T07:02:57;20.53;;;17.50;;
16442;SDS011;8331;51.654;14.376;2023-04-29T07:05:24;19.73;;;17.00;;
16442;SDS011;8331;51.654;14.376;2023-04-29T07:07:50;18.27;;;16.23;;
16442;SDS011;8331;51.654;14.376;2023-04-29T07:10:17;17.33;;;15.57;;
16442;SDS011;8331;51.654;14.376;2023-04-29T07:12:45;17.03;;;15.27;;
16442;SDS011;8331;51.654;14.376;2023-04-29T07:15:13;16.63;;;15.10;;
16442;SDS011;8331;51.654;14.376;2023-04-29T07:17:39;17.93;;;16.10;;
16442;SDS011;8331;51.654;14.376;2023-04-29T07:20:06;17.40;;;15.40;;
16442;SDS011;8331;51.654;14.376;2023-04-29T07:22:33;16.40;;;14.67;;
16442;SDS011;8331;51.654;14.376;2023-04-29T07:25:01;16.90;;;15.30;;
16442;SDS011;8331;51.654;14.376;2023-04-29T07:27:28;16.47;;;14.93;;
16442;SDS011;8331;51.654;14.376;2023-04-29T07:29:54;17.83;;;16.00;;
16442;SDS011;8331;51.654;14.376;2023-04-29T07:32:22;16.53;;;14.83;;
16442;SDS011;8331;51.654;14.376;2023-04-29T07:34:48;17.70;;;15.90;;
16442;SDS011;8331;51.654;14.376;2023-04-29T07:37:15;17.63;;;15.80;;
16442;SDS011;8331;51.654;14.376;2023-04-29T07:39:42;16.43;;;14.83;;
16442;SDS011;8331;51.654;14.376;2023-04-29T07:42:09;17.10;;;15.50;;
16442;SDS011;8331;51.654;14.376;2023-04-29T07:44:35;18.50;;;16.40;;
16442;SDS011;8331;51.654;14.376;2023-04-29T07:47:02;16.80;;;15.10;;
16442;SDS011;8331;51.654;14.376;2023-04-29T07:49:28;17.37;;;15.67;;
16442;SDS011;8331;51.654;14.376;2023-04-29T07:51:55;17.93;;;16.13;;
16442;SDS011;8331;51.654;14.376;2023-04-29T07:54:22;17.50;;;15.80;;
16442;SDS011;8331;51.654;14.376;2023-04-29T07:56:49;18.67;;;16.03;;
16442;SDS011;8331;51.654;14.376;2023-04-29T07:59:18;16.80;;;15.10;;
16442;SDS011;8331;51.654;14.376;2023-04-29T08:01:45;18.10;;;16.20;;
16442;SDS011;8331;51.654;14.376;2023-04-29T08:04:12;18.97;;;16.97;;
16442;SDS011;8331;51.654;14.376;2023-04-29T08:06:46;18.83;;;16.83;;
16442;SDS011;8331;51.654;14.376;2023-04-29T08:09:14;18.80;;;16.83;;
16442;SDS011;8331;51.654;14.376;2023-04-29T08:11:41;20.37;;;18.17;;
16442;SDS011;8331;51.654;14.376;2023-04-29T08:14:11;20.03;;;17.50;;
16442;SDS011;8331;51.654;14.376;2023-04-29T08:16:38;22.17;;;17.23;;
16442;SDS011;8331;51.654;14.376;2023-04-29T08:19:05;19.47;;;17.07;;
16442;SDS011;8331;51.654;14.376;2023-04-29T08:21:32;20.77;;;17.70;;
16442;SDS011;8331;51.654;14.376;2023-04-29T08:24:00;21.10;;;17.63;;
16442;SDS011;8331;51.654;14.376;2023-04-29T08:26:26;20.33;;;18.13;;
16442;SDS011;8331;51.654;14.376;2023-04-29T08:28:53;20.97;;;18.27;;
16442;SDS011;8331;51.654;14.376;2023-04-29T08:31:20;19.33;;;17.30;;
16442;SDS011;8331;51.654;14.376;2023-04-29T08:33:47;19.70;;;17.10;;
16442;SDS011;8331;51.654;14.376;2023-04-29T08:36:14;19.17;;;15.87;;
16442;SDS011;8331;51.654;14.376;2023-04-29T08:38:40;18.20;;;16.13;;
16442;SDS011;8331;51.654;14.376;2023-04-29T08:41:07;17.60;;;15.77;;
16442;SDS011;8331;51.654;14.376;2023-04-29T08:43:35;19.13;;;16.00;;
16442;SDS011;8331;51.654;14.376;2023-04-29T08:46:07;16.73;;;14.87;;
16442;SDS011;8331;51.654;14.376;2023-04-29T08:48:35;19.33;;;16.40;;
16442;SDS011;8331;51.654;14.376;2023-04-29T08:51:03;18.13;;;16.23;;
16442;SDS011;8331;51.654;14.376;2023-04-29T08:53:30;18.00;;;16.10;;
16442;SDS011;8331;51.654;14.376;2023-04-29T08:55:57;18.57;;;16.53;;
16442;SDS011;8331;51.654;14.376;2023-04-29T08:58:25;19.30;;;16.57;;
16442;SDS011;8331;51.654;14.376;2023-04-29T09:00:53;18.20;;;16.33;;
16442;SDS011;8331;51.654;14.376;2023-04-29T09:05:47;18.53;;;16.43;;
16442;SDS011;8331;51.654;14.376;2023-04-29T09:08:15;19.03;;;15.37;;
16442;SDS011;8331;51.654;14.376;2023-04-29T09:10:42;20.73;;;15.70;;
16442;SDS011;8331;51.654;14.376;2023-04-29T09:13:20;15.97;;;13.90;;
16442;SDS011;8331;51.654;14.376;2023-04-29T09:15:47;16.17;;;14.17;;
16442;SDS011;8331;51.654;14.376;2023-04-29T09:18:40;16.30;;;14.63;;
16442;SDS011;8331;51.654;14.376;2023-04-29T09:21:11;15.87;;;14.10;;
16442;SDS011;8331;51.654;14.376;2023-04-29T09:23:38;16.47;;;14.10;;
16442;SDS011;8331;51.654;14.376;2023-04-29T09:26:04;16.57;;;13.93;;
16442;SDS011;8331;51.654;14.376;2023-04-29T09:28:31;14.70;;;13.20;;
16442;SDS011;8331;51.654;14.376;2023-04-29T09:30:57;15.40;;;13.80;;
16442;SDS011;8331;51.654;14.376;2023-04-29T09:33:24;17.07;;;14.00;;
16442;SDS011;8331;51.654;14.376;2023-04-29T09:35:53;15.33;;;13.47;;
16442;SDS011;8331;51.654;14.376;2023-04-29T09:38:20;16.90;;;13.90;;
16442;SDS011;8331;51.654;14.376;2023-04-29T09:40:47;15.73;;;14.10;;
16442;SDS011;8331;51.654;14.376;2023-04-29T09:43:25;16.70;;;14.03;;
16442;SDS011;8331;51.654;14.376;2023-04-29T09:45:52;16.30;;;14.20;;
16442;SDS011;8331;51.654;14.376;2023-04-29T09:48:18;15.27;;;13.77;;
16442;SDS011;8331;51.654;14.376;2023-04-29T09:50:57;18.67;;;15.40;;
16442;SDS011;8331;51.654;14.376;2023-04-29T09:53:27;17.60;;;14.77;;
16442;SDS011;8331;51.654;14.376;2023-04-29T09:55:57;16.07;;;14.07;;
16442;SDS011;8331;51.654;14.376;2023-04-29T09:58:26;17.13;;;14.00;;
16442;SDS011;8331;51.654;14.376;2023-04-29T10:00:53;16.80;;;14.70;;
16442;SDS011;8331;51.654;14.376;2023-04-29T10:03:20;17.30;;;14.73;;
16442;SDS011;8331;51.654;14.376;2023-04-29T10:05:47;17.20;;;15.40;;
16442;SDS011;8331;51.654;14.376;2023-04-29T10:08:13;15.53;;;13.93;;
16442;SDS011;8331;51.654;14.376;2023-04-29T10:10:40;14.97;;;13.43;;
16442;SDS011;8331;51.654;14.376;2023-04-29T10:13:07;15.43;;;13.73;;
16442;SDS011;8331;51.654;14.376;2023-04-29T10:15:38;14.13;;;12.63;;
16442;SDS011;8331;51.654;14.376;2023-04-29T10:18:11;14.80;;;13.20;;
16442;SDS011;8331;51.654;14.376;2023-04-29T10:20:40;13.33;;;12.00;;
16442;SDS011;8331;51.654;14.376;2023-04-29T10:23:11;12.23;;;11.03;;
16442;SDS011;8331;51.654;14.376;2023-04-29T10:25:39;12.80;;;11.50;;
16442;SDS011;8331;51.654;14.376;2023-04-29T10:28:11;15.13;;;12.10;;
16442;SDS011;8331;51.654;14.376;2023-04-29T10:30:42;12.57;;;11.30;;
16442;SDS011;8331;51.654;14.376;2023-04-29T10:33:12;12.33;;;11.13;;
16442;SDS011;8331;51.654;14.376;2023-04-29T10:35:42;13.70;;;11.70;;
16442;SDS011;8331;51.654;14.376;2023-04-29T10:38:12;11.97;;;10.87;;
16442;SDS011;8331;51.654;14.376;2023-04-29T10:40:44;12.47;;;11.27;;
16442;SDS011;8331;51.654;14.376;2023-04-29T10:43:14;11.40;;;10.40;;
16442;SDS011;8331;51.654;14.376;2023-04-29T10:45:41;11.20;;;10.00;;
16442;SDS011;8331;51.654;14.376;2023-04-29T10:48:08;11.27;;;10.17;;
16442;SDS011;8331;51.654;14.376;2023-04-29T10:53:02;10.90;;;9.90;;
16442;SDS011;8331;51.654;14.376;2023-04-29T10:55:28;9.40;;;8.50;;
16442;SDS011;8331;51.654;14.376;2023-04-29T10:57:56;9.70;;;8.80;;
16442;SDS011;8331;51.654;14.376;2023-04-29T11:00:30;9.20;;;8.30;;
16442;SDS011;8331;51.654;14.376;2023-04-29T11:03:00;9.10;;;8.23;;
16442;SDS011;8331;51.654;14.376;2023-04-29T11:08:12;7.50;;;6.90;;
16442;SDS011;8331;51.654;14.376;2023-04-29T11:10:42;6.17;;;5.27;;
16442;SDS011;8331;51.654;14.376;2023-04-29T11:15:49;4.50;;;4.10;;
16442;SDS011;8331;51.654;14.376;2023-04-29T11:18:16;4.03;;;3.60;;
16442;SDS011;8331;51.654;14.376;2023-04-29T11:23:28;3.30;;;3.00;;
16442;SDS011;8331;51.654;14.376;2023-04-29T11:25:55;3.10;;;2.90;;
16442;SDS011;8331;51.654;14.376;2023-04-29T11:28:23;3.23;;;3.03;;
16442;SDS011;8331;51.654;14.376;2023-04-29T11:30:49;5.73;;;3.90;;
16442;SDS011;8331;51.654;14.376;2023-04-29T11:33:16;4.37;;;4.07;;
16442;SDS011;8331;51.654;14.376;2023-04-29T11:35:45;4.70;;;4.40;;
16442;SDS011;8331;51.654;14.376;2023-04-29T11:38:12;4.97;;;4.57;;
16442;SDS011;8331;51.654;14.376;2023-04-29T11:40:48;5.93;;;5.53;;
16442;SDS011;8331;51.654;14.376;2023-04-29T11:43:16;6.93;;;6.33;;
16442;SDS011;8331;51.654;14.376;2023-04-29T11:45:46;8.70;;;8.00;;
16442;SDS011;8331;51.654;14.376;2023-04-29T11:48:16;8.37;;;7.67;;
16442;SDS011;8331;51.654;14.376;2023-04-29T11:50:44;9.27;;;8.47;;
16442;SDS011;8331;51.654;14.376;2023-04-29T11:53:11;10.23;;;9.43;;
16442;SDS011;8331;51.654;14.376;2023-04-29T11:55:38;9.43;;;8.63;;
16442;SDS011;8331;51.654;14.376;2023-04-29T11:58:07;11.63;;;10.47;;
16442;SDS011;8331;51.654;14.376;2023-04-29T12:00:33;10.13;;;9.13;;
16442;SDS011;8331;51.654;14.376;2023-04-29T12:03:00;12.03;;;11.03;;
16442;SDS011;8331;51.654;14.376;2023-04-29T12:05:27;9.87;;;9.07;;
16442;SDS011;8331;51.654;14.376;2023-04-29T12:07:54;11.03;;;9.93;;
16442;SDS011;8331;51.654;14.376;2023-04-29T12:10:20;11.57;;;10.47;;
16442;SDS011;8331;51.654;14.376;2023-04-29T12:12:47;13.98;;;12.68;;
16442;SDS011;8331;51.654;14.376;2023-04-29T12:15:14;11.57;;;10.43;;
16442;SDS011;8331;51.654;14.376;2023-04-29T12:17:41;14.10;;;12.60;;
16442;SDS011;8331;51.654;14.376;2023-04-29T12:20:08;15.23;;;13.63;;
16442;SDS011;8331;51.654;14.376;2023-04-29T12:22:36;17.20;;;14.43;;
16442;SDS011;8331;51.654;14.376;2023-04-29T12:25:03;17.90;;;15.13;;
16442;SDS011;8331;51.654;14.376;2023-04-29T12:27:30;19.50;;;15.70;;
16442;SDS011;8331;51.654;14.376;2023-04-29T12:29:57;22.03;;;17.20;;
16442;SDS011;8331;51.654;14.376;2023-04-29T12:32:24;21.13;;;17.30;;
16442;SDS011;8331;51.654;14.376;2023-04-29T12:34:51;24.83;;;17.27;;
16442;SDS011;8331;51.654;14.376;2023-04-29T12:37:18;23.90;;;17.40;;
16442;SDS011;8331;51.654;14.376;2023-04-29T12:39:48;21.13;;;16.47;;
16442;SDS011;8331;51.654;14.376;2023-04-29T12:42:14;20.00;;;15.93;;
16442;SDS011;8331;51.654;14.376;2023-04-29T12:44:44;21.20;;;16.83;;
16442;SDS011;8331;51.654;14.376;2023-04-29T12:47:12;19.17;;;15.53;;
16442;SDS011;8331;51.654;14.376;2023-04-29T12:49:46;21.17;;;15.00;;
16442;SDS011;8331;51.654;14.376;2023-04-29T12:52:13;18.10;;;15.47;;
16442;SDS011;8331;51.654;14.376;2023-04-29T12:54:40;17.60;;;15.00;;
16442;SDS011;8331;51.654;14.376;2023-04-29T12:57:09;21.93;;;16.37;;
16442;SDS011;8331;51.654;14.376;2023-04-29T12:59:36;17.83;;;15.10;;
16442;SDS011;8331;51.654;14.376;2023-04-29T13:02:03;21.40;;;15.20;;
16442;SDS011;8331;51.654;14.376;2023-04-29T13:04:29;21.33;;;15.10;;
16442;SDS011;8331;51.654;14.376;2023-04-29T13:06:56;21.93;;;15.37;;
16442;SDS011;8331;51.654;14.376;2023-04-29T13:09:27;21.53;;;16.70;;
16442;SDS011;8331;51.654;14.376;2023-04-29T13:11:53;25.13;;;17.17;;
16442;SDS011;8331;51.654;14.376;2023-04-29T13:14:20;19.73;;;15.40;;
16442;SDS011;8331;51.654;14.376;2023-04-29T13:16:47;24.30;;;16.90;;
16442;SDS011;8331;51.654;14.376;2023-04-29T13:19:14;22.70;;;16.87;;
16442;SDS011;8331;51.654;14.376;2023-04-29T13:22:00;21.67;;;16.33;;
16442;SDS011;8331;51.654;14.376;2023-04-29T13:24:27;24.63;;;16.37;;
16442;SDS011;8331;51.654;14.376;2023-04-29T13:26:53;23.47;;;16.07;;
16442;SDS011;8331;51.654;14.376;2023-04-29T13:29:20;19.87;;;14.70;;
16442;SDS011;8331;51.654;14.376;2023-04-29T13:31:46;18.83;;;15.30;;
16442;SDS011;8331;51.654;14.376;2023-04-29T13:34:13;19.70;;;15.83;;
16442;SDS011;8331;51.654;14.376;2023-04-29T13:36:40;21.00;;;16.40;;
16442;SDS011;8331;51.654;14.376;2023-04-29T13:39:06;21.73;;;16.10;;
16442;SDS011;8331;51.654;14.376;2023-04-29T13:41:33;18.93;;;14.93;;
16442;SDS011;8331;51.654;14.376;2023-04-29T13:44:01;21.20;;;17.00;;
16442;SDS011;8331;51.654;14.376;2023-04-29T13:46:28;23.00;;;16.93;;
16442;SDS011;8331;51.654;14.376;2023-04-29T13:48:57;25.63;;;17.93;;
16442;SDS011;8331;51.654;14.376;2023-04-29T13:51:43;25.70;;;18.20;;
16442;SDS011;8331;51.654;14.376;2023-04-29T13:54:31;27.93;;;18.77;;
16442;SDS011;8331;51.654;14.376;2023-04-29T13:57:00;27.63;;;18.60;;
16442;SDS011;8331;51.654;14.376;2023-04-29T13:59:50;26.47;;;18.63;;
16442;SDS011;8331;51.654;14.376;2023-04-29T14:02:18;29.33;;;19.00;;
16442;SDS011;8331;51.654;14.376;2023-04-29T14:04:48;26.43;;;18.63;;
16442;SDS011;8331;51.654;14.376;2023-04-29T14:07:15;27.33;;;19.03;;
16442;SDS011;8331;51.654;14.376;2023-04-29T14:09:42;34.10;;;22.13;;
16442;SDS011;8331;51.654;14.376;2023-04-29T14:12:08;30.10;;;21.20;;
16442;SDS011;8331;51.654;14.376;2023-04-29T14:14:35;34.13;;;21.43;;
16442;SDS011;8331;51.654;14.376;2023-04-29T14:17:01;31.93;;;22.33;;
16442;SDS011;8331;51.654;14.376;2023-04-29T14:19:29;40.00;;;25.90;;
16442;SDS011;8331;51.654;14.376;2023-04-29T14:21:55;39.80;;;25.83;;
16442;SDS011;8331;51.654;14.376;2023-04-29T14:24:22;41.67;;;27.83;;
16442;SDS011;8331;51.654;14.376;2023-04-29T14:26:48;46.37;;;29.30;;
16442;SDS011;8331;51.654;14.376;2023-04-29T14:29:15;47.63;;;29.87;;
16442;SDS011;8331;51.654;14.376;2023-04-29T14:31:41;44.97;;;30.43;;
16442;SDS011;8331;51.654;14.376;2023-04-29T14:34:08;43.03;;;29.47;;
16442;SDS011;8331;51.654;14.376;2023-04-29T14:36:34;45.20;;;30.37;;
16442;SDS011;8331;51.654;14.376;2023-04-29T14:39:01;43.47;;;29.73;;
16442;SDS011;8331;51.654;14.376;2023-04-29T14:41:29;49.83;;;31.17;;
16442;SDS011;8331;51.654;14.376;2023-04-29T14:43:56;45.23;;;30.77;;
16442;SDS011;8331;51.654;14.376;2023-04-29T14:46:22;45.13;;;30.00;;
16442;SDS011;8331;51.654;14.376;2023-04-29T14:48:50;44.70;;;30.50;;
16442;SDS011;8331;51.654;14.376;2023-04-29T14:51:17;41.77;;;28.53;;
16442;SDS011;8331;51.654;14.376;2023-04-29T14:53:43;42.77;;;29.27;;
16442;SDS011;8331;51.654;14.376;2023-04-29T14:56:10;38.47;;;27.80;;